sensor_id;sensor_type;location;lat;lon;timestamp;pressure;altitude;pressure_sealevel;temperature;humidity
20210;BME280;10264;53.178;5.840;2023-09-12T09:27:43;-16708.94;;;-141.76;100.00
20210;BME280;10264;53.178;5.840;2023-09-12T09:30:11;-16708.94;;;-141.76;100.00
20210;BME280;10264;53.178;5.840;2023-09-12T09:32:43;-16708.94;;;-141.76;100.00
20210;BME280;10264;53.178;5.840;2023-09-12T09:35:25;-16708.94;;;-141.76;100.00
20210;BME280;10264;53.178;5.840;2023-09-12T09:37:54;-16708.94;;;-141.76;100.00
20210;BME280;10264;53.178;5.840;2023-09-12T09:40:25;-16708.94;;;-141.76;100.00
20210;BME280;10264;53.178;5.840;2023-09-12T09:43:07;-16708.94;;;-141.76;100.00
20210;BME280;10264;53.178;5.840;2023-09-12T09:45:43;-16708.94;;;-141.76;100.00
20210;BME280;10264;53.178;5.840;2023-09-12T09:48:24;-16708.94;;;-141.76;100.00
20210;BME280;10264;53.178;5.840;2023-09-12T09:51:01;-16708.94;;;-141.76;100.00
20210;BME280;10264;53.178;5.840;2023-09-12T09:53:41;-16708.94;;;-141.76;100.00
20210;BME280;10264;53.178;5.840;2023-09-12T09:56:14;-16708.94;;;-141.76;100.00
20210;BME280;10264;53.178;5.840;2023-09-12T09:59:15;-16708.94;;;-141.76;100.00
20210;BME280;10264;53.178;5.840;2023-09-12T10:01:48;-16708.94;;;-141.76;100.00
20210;BME280;10264;53.178;5.840;2023-09-12T10:04:28;-16708.94;;;-141.76;100.00
20210;BME280;10264;53.178;5.840;2023-09-12T10:07:10;-16708.94;;;-141.76;100.00
20210;BME280;10264;53.178;5.840;2023-09-12T10:09:54;-16708.94;;;-141.76;100.00
20210;BME280;10264;53.178;5.840;2023-09-12T10:12:26;-16708.94;;;-141.76;100.00
20210;BME280;10264;53.178;5.840;2023-09-12T10:14:59;-16708.94;;;-141.76;100.00
20210;BME280;10264;53.178;5.840;2023-09-12T10:17:55;-16708.94;;;-141.76;100.00
20210;BME280;10264;53.178;5.840;2023-09-12T10:20:33;-16708.94;;;-141.76;100.00
20210;BME280;10264;53.178;5.840;2023-09-12T10:23:33;-16708.94;;;-141.76;100.00
20210;BME280;10264;53.178;5.840;2023-09-12T10:26:17;-16708.94;;;-141.76;100.00
20210;BME280;10264;53.178;5.840;2023-09-12T10:29:05;-16708.94;;;-141.76;100.00
20210;BME280;10264;53.178;5.840;2023-09-12T10:35:11;-16708.94;;;-141.76;100.00
20210;BME280;10264;53.178;5.840;2023-09-12T10:37:43;-16708.94;;;-141.76;100.00
20210;BME280;10264;53.178;5.840;2023-09-12T10:40:36;-16708.94;;;-141.76;100.00
20210;BME280;10264;53.178;5.840;2023-09-12T10:43:14;-16708.94;;;-141.76;100.00
20210;BME280;10264;53.178;5.840;2023-09-12T10:45:45;-16708.94;;;-141.76;100.00
20210;BME280;10264;53.178;5.840;2023-09-12T10:48:35;-16708.94;;;-141.76;100.00
20210;BME280;10264;53.178;5.840;2023-09-12T10:51:19;-16708.94;;;-141.76;100.00
20210;BME280;10264;53.178;5.840;2023-09-12T10:53:57;-16708.94;;;-141.76;100.00
20210;BME280;10264;53.178;5.840;2023-09-12T10:56:42;-16708.94;;;-141.76;100.00
20210;BME280;10264;53.178;5.840;2023-09-12T10:59:13;-16708.94;;;-141.76;100.00
20210;BME280;10264;53.178;5.840;2023-09-12T11:01:43;-16708.94;;;-141.76;100.00
20210;BME280;10264;53.178;5.840;2023-09-12T11:06:56;-16708.94;;;-141.76;100.00
20210;BME280;10264;53.178;5.840;2023-09-12T11:09:27;-16708.94;;;-141.76;100.00
20210;BME280;10264;53.178;5.840;2023-09-12T11:12:33;-16708.94;;;-141.76;100.00
20210;BME280;10264;53.178;5.840;2023-09-12T11:15:15;-16708.94;;;-141.76;100.00
20210;BME280;10264;53.178;5.840;2023-09-12T11:17:45;-16708.94;;;-141.76;100.00
20210;BME280;10264;53.178;5.840;2023-09-12T11:21:02;-16708.94;;;-141.76;100.00
20210;BME280;10264;53.178;5.840;2023-09-12T11:23:32;-16708.94;;;-141.76;100.00
20210;BME280;10264;53.178;5.840;2023-09-12T11:26:16;-16708.94;;;-141.76;100.00
20210;BME280;10264;53.178;5.840;2023-09-12T11:28:51;-16708.94;;;-141.76;100.00
20210;BME280;10264;53.178;5.840;2023-09-12T11:34:14;-16708.94;;;-141.76;100.00
20210;BME280;10264;53.178;5.840;2023-09-12T11:36:45;-16708.94;;;-141.76;100.00
20210;BME280;10264;53.178;5.840;2023-09-12T11:39:33;-16708.94;;;-141.76;100.00
20210;BME280;10264;53.178;5.840;2023-09-12T11:42:02;-16708.94;;;-141.76;100.00
20210;BME280;10264;53.178;5.840;2023-09-12T11:44:56;-16708.94;;;-141.76;100.00
20210;BME280;10264;53.178;5.840;2023-09-12T11:51:06;-16708.94;;;-141.76;100.00
20210;BME280;10264;53.178;5.840;2023-09-12T11:57:42;-16708.94;;;-141.76;100.00
20210;BME280;10264;53.178;5.840;2023-09-12T12:00:32;-16708.94;;;-141.76;100.00
20210;BME280;10264;53.178;5.840;2023-09-12T12:03:41;-16708.94;;;-141.76;100.00
20210;BME280;10264;53.178;5.840;2023-09-12T12:10:01;-16708.94;;;-141.76;100.00
20210;BME280;10264;53.178;5.840;2023-09-12T12:16:24;-16708.94;;;-141.76;100.00
20210;BME280;10264;53.178;5.840;2023-09-12T12:18:56;-16708.94;;;-141.76;100.00
20210;BME280;10264;53.178;5.840;2023-09-12T12:21:41;-16708.94;;;-141.76;100.00
20210;BME280;10264;53.178;5.840;2023-09-12T12:24:16;-16708.94;;;-141.76;100.00
20210;BME280;10264;53.178;5.840;2023-09-12T12:26:46;-16708.94;;;-141.76;100.00
20210;BME280;10264;53.178;5.840;2023-09-12T12:29:16;-16708.94;;;-141.76;100.00
20210;BME280;10264;53.178;5.840;2023-09-12T12:31:45;-16708.94;;;-141.76;100.00
20210;BME280;10264;53.178;5.840;2023-09-12T12:34:15;-16708.94;;;-141.76;100.00
20210;BME280;10264;53.178;5.840;2023-09-12T12:37:08;-16708.94;;;-141.76;100.00
20210;BME280;10264;53.178;5.840;2023-09-12T12:43:35;-15953.97;;;-141.76;100.00
20210;BME280;10264;53.178;5.840;2023-09-12T12:46:10;-15702.75;;;-141.76;100.00
20210;BME280;10264;53.178;5.840;2023-09-12T12:48:38;-16205.16;;;-141.76;100.00
20210;BME280;10264;53.178;5.840;2023-09-12T12:51:50;-16707.47;;;-141.76;100.00
20210;BME280;10264;53.178;5.840;2023-09-12T12:57:49;-16708.94;;;-141.76;100.00
20210;BME280;10264;53.178;5.840;2023-09-12T13:00:50;-16708.94;;;-141.76;100.00
20210;BME280;10264;53.178;5.840;2023-09-12T13:03:24;-15953.97;;;-141.76;100.00
20210;BME280;10264;53.178;5.840;2023-09-12T13:05:57;-10422.84;;;-141.76;100.00
20210;BME280;10264;53.178;5.840;2023-09-12T13:08:35;-13440.97;;;-141.76;100.00
20210;BME280;10264;53.178;5.840;2023-09-12T13:18:13;-12686.72;;;-141.76;100.00
20210;BME280;10264;53.178;5.840;2023-09-12T13:20:45;-14697.72;;;-141.76;100.00
20210;BME280;10264;53.178;5.840;2023-09-12T13:23:43;-14949.00;;;-141.76;100.00
20210;BME280;10264;53.178;5.840;2023-09-12T13:37:17;-16708.94;;;-141.76;100.00
20210;BME280;10264;53.178;5.840;2023-09-12T13:43:41;-16708.94;;;-141.76;100.00
20210;BME280;10264;53.178;5.840;2023-09-12T13:57:16;-16708.94;;;-141.76;100.00
20210;BME280;10264;53.178;5.840;2023-09-12T13:59:57;-16708.94;;;-141.76;100.00
20210;BME280;10264;53.178;5.840;2023-09-12T14:02:27;-16708.94;;;-141.76;100.00
20210;BME280;10264;53.178;5.840;2023-09-12T14:08:34;-16708.94;;;-141.76;100.00
20210;BME280;10264;53.178;5.840;2023-09-12T14:11:07;-16708.94;;;-141.76;100.00
20210;BME280;10264;53.178;5.840;2023-09-12T14:13:57;-16708.94;;;-141.76;100.00
20210;BME280;10264;53.178;5.840;2023-09-12T14:16:45;-16708.94;;;-141.76;100.00
20210;BME280;10264;53.178;5.840;2023-09-12T14:19:20;-16708.94;;;-141.76;100.00
20210;BME280;10264;53.178;5.840;2023-09-12T14:21:48;-16708.94;;;-141.76;100.00
20210;BME280;10264;53.178;5.840;2023-09-12T14:24:30;-16708.94;;;-141.76;100.00
20210;BME280;10264;53.178;5.840;2023-09-12T14:27:02;-16708.94;;;-141.76;100.00
20210;BME280;10264;53.178;5.840;2023-09-12T14:29:54;-16708.94;;;-141.76;100.00
20210;BME280;10264;53.178;5.840;2023-09-12T14:32:31;-16708.94;;;-141.76;100.00
20210;BME280;10264;53.178;5.840;2023-09-12T14:35:03;-16708.94;;;-141.76;100.00
20210;BME280;10264;53.178;5.840;2023-09-12T14:37:31;-16708.94;;;-141.76;100.00
20210;BME280;10264;53.178;5.840;2023-09-12T14:40:05;-16708.94;;;-141.76;100.00
20210;BME280;10264;53.178;5.840;2023-09-12T14:42:45;-16708.94;;;-141.76;100.00
20210;BME280;10264;53.178;5.840;2023-09-12T14:45:14;-16708.94;;;-141.76;100.00
20210;BME280;10264;53.178;5.840;2023-09-12T14:48:04;-16708.94;;;-141.76;100.00
20210;BME280;10264;53.178;5.840;2023-09-12T14:50:41;-16708.94;;;-141.76;100.00
20210;BME280;10264;53.178;5.840;2023-09-12T14:53:57;-16708.94;;;-141.76;100.00
20210;BME280;10264;53.178;5.840;2023-09-12T15:00:14;-16708.94;;;-141.76;100.00
20210;BME280;10264;53.178;5.840;2023-09-12T15:03:04;-16708.94;;;-141.76;100.00
20210;BME280;10264;53.178;5.840;2023-09-12T15:05:54;-16708.94;;;-141.76;100.00
20210;BME280;10264;53.178;5.840;2023-09-12T15:12:17;-16708.94;;;-141.76;100.00
20210;BME280;10264;53.178;5.840;2023-09-12T15:14:55;-16708.94;;;-141.76;100.00
20210;BME280;10264;53.178;5.840;2023-09-12T15:17:49;-16708.94;;;-141.76;100.00
20210;BME280;10264;53.178;5.840;2023-09-12T15:24:01;-16708.94;;;-141.76;100.00
20210;BME280;10264;53.178;5.840;2023-09-12T15:26:51;-16708.94;;;-141.76;100.00
20210;BME280;10264;53.178;5.840;2023-09-12T15:29:42;-16708.94;;;-141.76;100.00
20210;BME280;10264;53.178;5.840;2023-09-12T15:32:42;-16708.94;;;-141.76;100.00
20210;BME280;10264;53.178;5.840;2023-09-12T15:35:15;-16708.94;;;-141.76;100.00
20210;BME280;10264;53.178;5.840;2023-09-12T15:37:49;-16708.94;;;-141.76;100.00
20210;BME280;10264;53.178;5.840;2023-09-12T15:40:59;-16708.94;;;-141.76;100.00
20210;BME280;10264;53.178;5.840;2023-09-12T15:43:33;-16708.94;;;-141.76;100.00
20210;BME280;10264;53.178;5.840;2023-09-12T15:46:00;-16708.94;;;-141.76;100.00
20210;BME280;10264;53.178;5.840;2023-09-12T15:48:33;-16708.94;;;-141.76;100.00
20210;BME280;10264;53.178;5.840;2023-09-12T15:51:30;-16708.94;;;-141.76;100.00
20210;BME280;10264;53.178;5.840;2023-09-12T15:54:07;-16708.94;;;-141.76;100.00
20210;BME280;10264;53.178;5.840;2023-09-12T15:56:40;-16708.94;;;-141.76;100.00
20210;BME280;10264;53.178;5.840;2023-09-12T15:59:35;-16708.94;;;-141.76;100.00
20210;BME280;10264;53.178;5.840;2023-09-12T16:05:54;-16708.94;;;-141.76;100.00
20210;BME280;10264;53.178;5.840;2023-09-12T16:08:48;-16708.94;;;-141.76;100.00
20210;BME280;10264;53.178;5.840;2023-09-12T16:11:26;-16708.94;;;-141.76;100.00
20210;BME280;10264;53.178;5.840;2023-09-12T16:13:56;-16708.94;;;-141.76;100.00
20210;BME280;10264;53.178;5.840;2023-09-12T16:16:34;-16708.94;;;-141.76;100.00
20210;BME280;10264;53.178;5.840;2023-09-12T16:19:13;-16708.94;;;-141.76;100.00
20210;BME280;10264;53.178;5.840;2023-09-12T16:21:42;-16708.94;;;-141.76;100.00
20210;BME280;10264;53.178;5.840;2023-09-12T16:24:12;-16708.94;;;-141.76;100.00
20210;BME280;10264;53.178;5.840;2023-09-12T16:27:07;-16708.94;;;-141.76;100.00
20210;BME280;10264;53.178;5.840;2023-09-12T16:29:40;-16708.94;;;-141.76;100.00
20210;BME280;10264;53.178;5.840;2023-09-12T16:32:07;-16708.94;;;-141.76;100.00
20210;BME280;10264;53.178;5.840;2023-09-12T16:34:45;-16708.94;;;-141.76;100.00
20210;BME280;10264;53.178;5.840;2023-09-12T16:37:34;-16708.94;;;-141.76;100.00
20210;BME280;10264;53.178;5.840;2023-09-12T16:40:06;-16708.94;;;-141.76;100.00
20210;BME280;10264;53.178;5.840;2023-09-12T16:49:25;-16708.94;;;-141.76;100.00
20210;BME280;10264;53.178;5.840;2023-09-12T16:55:32;-16708.94;;;-141.76;100.00
20210;BME280;10264;53.178;5.840;2023-09-12T17:01:45;-16708.94;;;-141.76;100.00
20210;BME280;10264;53.178;5.840;2023-09-12T17:04:23;-16708.94;;;-141.76;100.00
20210;BME280;10264;53.178;5.840;2023-09-12T17:07:13;-16708.94;;;-141.76;100.00
20210;BME280;10264;53.178;5.840;2023-09-12T17:10:08;-16708.94;;;-141.76;100.00
20210;BME280;10264;53.178;5.840;2023-09-12T17:12:46;-16708.94;;;-141.76;100.00
20210;BME280;10264;53.178;5.840;2023-09-12T17:15:14;-16708.94;;;-141.76;100.00
20210;BME280;10264;53.178;5.840;2023-09-12T17:17:47;-16708.94;;;-141.76;100.00
20210;BME280;10264;53.178;5.840;2023-09-12T17:20:23;-16708.94;;;-141.76;100.00
20210;BME280;10264;53.178;5.840;2023-09-12T17:22:51;-16708.94;;;-141.76;100.00
20210;BME280;10264;53.178;5.840;2023-09-12T17:25:21;-16708.94;;;-141.76;100.00
20210;BME280;10264;53.178;5.840;2023-09-12T17:27:50;-16708.94;;;-141.76;100.00
20210;BME280;10264;53.178;5.840;2023-09-12T17:30:23;-16708.94;;;-141.76;100.00
20210;BME280;10264;53.178;5.840;2023-09-12T17:32:54;-16708.94;;;-141.76;100.00
20210;BME280;10264;53.178;5.840;2023-09-12T17:35:30;-16708.94;;;-141.76;100.00
20210;BME280;10264;53.178;5.840;2023-09-12T17:38:01;-16708.94;;;-141.76;100.00
20210;BME280;10264;53.178;5.840;2023-09-12T17:40:41;-16708.94;;;-141.76;100.00
20210;BME280;10264;53.178;5.840;2023-09-12T17:43:13;-16708.94;;;-141.76;100.00
20210;BME280;10264;53.178;5.840;2023-09-12T17:45:45;-16708.94;;;-141.76;100.00
20210;BME280;10264;53.178;5.840;2023-09-12T17:48:39;-16708.94;;;-141.76;100.00
20210;BME280;10264;53.178;5.840;2023-09-12T17:51:26;-16708.94;;;-141.76;100.00
20210;BME280;10264;53.178;5.840;2023-09-12T17:53:55;-16708.94;;;-141.76;100.00
20210;BME280;10264;53.178;5.840;2023-09-12T17:56:41;-16708.94;;;-141.76;100.00
20210;BME280;10264;53.178;5.840;2023-09-12T17:59:10;-16708.94;;;-141.76;100.00
20210;BME280;10264;53.178;5.840;2023-09-12T18:01:41;-16708.94;;;-141.76;100.00
20210;BME280;10264;53.178;5.840;2023-09-12T18:04:13;-16708.94;;;-141.76;100.00
20210;BME280;10264;53.178;5.840;2023-09-12T18:06:47;-16708.94;;;-141.76;100.00
20210;BME280;10264;53.178;5.840;2023-09-12T18:09:15;-16708.94;;;-141.76;100.00
20210;BME280;10264;53.178;5.840;2023-09-12T18:11:52;-16708.94;;;-141.76;100.00
20210;BME280;10264;53.178;5.840;2023-09-12T18:14:28;-16708.94;;;-141.76;100.00
20210;BME280;10264;53.178;5.840;2023-09-12T18:16:57;-16708.94;;;-141.76;100.00
20210;BME280;10264;53.178;5.840;2023-09-12T18:19:34;-16708.94;;;-141.76;100.00
20210;BME280;10264;53.178;5.840;2023-09-12T18:22:24;-16708.94;;;-141.76;100.00
20210;BME280;10264;53.178;5.840;2023-09-12T18:24:57;-16708.94;;;-141.76;100.00
20210;BME280;10264;53.178;5.840;2023-09-12T18:27:34;-16708.94;;;-141.76;100.00
20210;BME280;10264;53.178;5.840;2023-09-12T18:30:05;-16708.94;;;-141.76;100.00
20210;BME280;10264;53.178;5.840;2023-09-12T18:32:33;-16708.94;;;-141.76;100.00
20210;BME280;10264;53.178;5.840;2023-09-12T18:34:59;-16708.94;;;-141.76;100.00
20210;BME280;10264;53.178;5.840;2023-09-12T18:37:33;-16708.94;;;-141.76;100.00
20210;BME280;10264;53.178;5.840;2023-09-12T18:40:10;-16708.94;;;-141.76;100.00
20210;BME280;10264;53.178;5.840;2023-09-12T18:43:02;-16708.94;;;-141.76;100.00
20210;BME280;10264;53.178;5.840;2023-09-12T18:45:37;-16708.94;;;-141.76;100.00
20210;BME280;10264;53.178;5.840;2023-09-12T18:48:07;-16708.94;;;-141.76;100.00
20210;BME280;10264;53.178;5.840;2023-09-12T18:50:34;-16708.94;;;-141.76;100.00
20210;BME280;10264;53.178;5.840;2023-09-12T18:53:12;-16708.94;;;-141.76;100.00
20210;BME280;10264;53.178;5.840;2023-09-12T18:55:49;-16708.94;;;-141.76;100.00
20210;BME280;10264;53.178;5.840;2023-09-12T18:59:00;-16708.94;;;-141.76;100.00
20210;BME280;10264;53.178;5.840;2023-09-12T19:01:46;-16708.94;;;-141.76;100.00
20210;BME280;10264;53.178;5.840;2023-09-12T19:04:30;-16708.94;;;-141.76;100.00
20210;BME280;10264;53.178;5.840;2023-09-12T19:07:12;-16708.94;;;-141.76;100.00
20210;BME280;10264;53.178;5.840;2023-09-12T19:10:03;-16708.94;;;-141.76;100.00
20210;BME280;10264;53.178;5.840;2023-09-12T19:12:43;-16708.94;;;-141.76;100.00
20210;BME280;10264;53.178;5.840;2023-09-12T19:15:53;-16708.94;;;-141.76;100.00
20210;BME280;10264;53.178;5.840;2023-09-12T19:18:29;-16708.94;;;-141.76;100.00
20210;BME280;10264;53.178;5.840;2023-09-12T19:21:06;-16708.94;;;-141.76;100.00
20210;BME280;10264;53.178;5.840;2023-09-12T19:23:57;-16708.94;;;-141.76;100.00
20210;BME280;10264;53.178;5.840;2023-09-12T19:26:45;-16708.94;;;-141.76;100.00
20210;BME280;10264;53.178;5.840;2023-09-12T19:29:21;-16708.94;;;-141.76;100.00
20210;BME280;10264;53.178;5.840;2023-09-12T19:32:16;-16708.94;;;-141.76;100.00
20210;BME280;10264;53.178;5.840;2023-09-12T19:35:09;-16708.94;;;-141.76;100.00
20210;BME280;10264;53.178;5.840;2023-09-12T19:40:59;-16708.94;;;-141.76;100.00
20210;BME280;10264;53.178;5.840;2023-09-12T19:44:06;-16708.94;;;-141.76;100.00
20210;BME280;10264;53.178;5.840;2023-09-12T19:46:49;-16708.94;;;-141.76;100.00
20210;BME280;10264;53.178;5.840;2023-09-12T19:49:20;-16708.94;;;-141.76;100.00
20210;BME280;10264;53.178;5.840;2023-09-12T19:55:18;-16708.94;;;-141.76;100.00
20210;BME280;10264;53.178;5.840;2023-09-12T19:57:54;-16708.94;;;-141.76;100.00
20210;BME280;10264;53.178;5.840;2023-09-12T20:00:34;-16708.94;;;-141.76;100.00
20210;BME280;10264;53.178;5.840;2023-09-12T20:03:22;-16708.94;;;-141.76;100.00
20210;BME280;10264;53.178;5.840;2023-09-12T20:05:56;-16708.94;;;-141.76;100.00
20210;BME280;10264;53.178;5.840;2023-09-12T20:08:47;-16708.94;;;-141.76;100.00
20210;BME280;10264;53.178;5.840;2023-09-12T20:11:38;-16708.94;;;-141.76;100.00
20210;BME280;10264;53.178;5.840;2023-09-12T20:14:09;-16708.94;;;-141.76;100.00
20210;BME280;10264;53.178;5.840;2023-09-12T20:16:44;-16708.94;;;-141.76;100.00
20210;BME280;10264;53.178;5.840;2023-09-12T20:19:58;-16708.94;;;-141.76;100.00
20210;BME280;10264;53.178;5.840;2023-09-12T20:22:49;-16708.94;;;-141.76;100.00
20210;BME280;10264;53.178;5.840;2023-09-12T20:25:42;-16708.94;;;-141.76;100.00
20210;BME280;10264;53.178;5.840;2023-09-12T20:28:16;-16708.94;;;-141.76;100.00
20210;BME280;10264;53.178;5.840;2023-09-12T20:30:50;-16708.94;;;-141.76;100.00
20210;BME280;10264;53.178;5.840;2023-09-12T20:33:21;-16708.94;;;-141.76;100.00
20210;BME280;10264;53.178;5.840;2023-09-12T20:35:49;-16708.94;;;-141.76;100.00
20210;BME280;10264;53.178;5.840;2023-09-12T20:38:22;-16708.94;;;-141.76;100.00
20210;BME280;10264;53.178;5.840;2023-09-12T20:43:41;-16708.94;;;-141.76;100.00
20210;BME280;10264;53.178;5.840;2023-09-12T20:46:13;-16708.94;;;-141.76;100.00
20210;BME280;10264;53.178;5.840;2023-09-12T20:48:52;-16708.94;;;-141.76;100.00
20210;BME280;10264;53.178;5.840;2023-09-12T20:54:31;-16708.94;;;-141.76;100.00
20210;BME280;10264;53.178;5.840;2023-09-12T20:57:08;-16708.94;;;-141.76;100.00
20210;BME280;10264;53.178;5.840;2023-09-12T20:59:40;-16708.94;;;-141.76;100.00
20210;BME280;10264;53.178;5.840;2023-09-12T21:02:11;-16708.94;;;-141.76;100.00
20210;BME280;10264;53.178;5.840;2023-09-12T21:07:41;-16708.94;;;-141.76;100.00
20210;BME280;10264;53.178;5.840;2023-09-12T21:10:28;-16708.94;;;-141.76;100.00
20210;BME280;10264;53.178;5.840;2023-09-12T21:12:57;-16708.94;;;-141.76;100.00
20210;BME280;10264;53.178;5.840;2023-09-12T21:15:56;-16708.94;;;-141.76;100.00
20210;BME280;10264;53.178;5.840;2023-09-12T21:18:46;-16708.94;;;-141.76;100.00
20210;BME280;10264;53.178;5.840;2023-09-12T21:21:22;-16708.94;;;-141.76;100.00
20210;BME280;10264;53.178;5.840;2023-09-12T21:24:00;-16708.94;;;-141.76;100.00
20210;BME280;10264;53.178;5.840;2023-09-12T21:26:58;-16708.94;;;-141.76;100.00
20210;BME280;10264;53.178;5.840;2023-09-12T21:29:38;-16708.94;;;-141.76;100.00
20210;BME280;10264;53.178;5.840;2023-09-12T21:39:31;-16708.94;;;-141.76;100.00
20210;BME280;10264;53.178;5.840;2023-09-12T21:42:32;-16708.94;;;-141.76;100.00
20210;BME280;10264;53.178;5.840;2023-09-12T21:48:53;-16708.94;;;-141.76;100.00
20210;BME280;10264;53.178;5.840;2023-09-12T21:51:36;-16708.94;;;-141.76;100.00
20210;BME280;10264;53.178;5.840;2023-09-12T21:54:12;-16708.94;;;-141.76;100.00
20210;BME280;10264;53.178;5.840;2023-09-12T22:00:31;-16708.94;;;-141.76;100.00
20210;BME280;10264;53.178;5.840;2023-09-12T22:03:21;-16708.94;;;-141.76;100.00
20210;BME280;10264;53.178;5.840;2023-09-12T22:06:20;-16708.94;;;-141.76;100.00
20210;BME280;10264;53.178;5.840;2023-09-12T22:09:10;-16708.94;;;-141.76;100.00
20210;BME280;10264;53.178;5.840;2023-09-12T22:12:02;-16708.94;;;-141.76;100.00
20210;BME280;10264;53.178;5.840;2023-09-12T22:14:32;-16708.94;;;-141.76;100.00
20210;BME280;10264;53.178;5.840;2023-09-12T22:17:24;-16708.94;;;-141.76;100.00
20210;BME280;10264;53.178;5.840;2023-09-12T22:20:50;-16708.94;;;-141.76;100.00
20210;BME280;10264;53.178;5.840;2023-09-12T22:23:42;-16708.94;;;-141.76;100.00
20210;BME280;10264;53.178;5.840;2023-09-12T22:26:37;-16708.94;;;-141.76;100.00
20210;BME280;10264;53.178;5.840;2023-09-12T22:29:26;-16708.94;;;-141.76;100.00
20210;BME280;10264;53.178;5.840;2023-09-12T22:32:24;-16708.94;;;-141.76;100.00
20210;BME280;10264;53.178;5.840;2023-09-12T22:35:07;-16708.94;;;-141.76;100.00
20210;BME280;10264;53.178;5.840;2023-09-12T22:37:59;-16708.94;;;-141.76;100.00
20210;BME280;10264;53.178;5.840;2023-09-12T22:40:37;-16708.94;;;-141.76;100.00
20210;BME280;10264;53.178;5.840;2023-09-12T22:43:37;-16708.94;;;-141.76;100.00
20210;BME280;10264;53.178;5.840;2023-09-12T22:46:46;-16708.94;;;-141.76;100.00
20210;BME280;10264;53.178;5.840;2023-09-12T22:56:11;-16708.94;;;-141.76;100.00
20210;BME280;10264;53.178;5.840;2023-09-12T22:58:57;-16708.94;;;-141.76;100.00
20210;BME280;10264;53.178;5.840;2023-09-12T23:01:38;-16708.94;;;-141.76;100.00
20210;BME280;10264;53.178;5.840;2023-09-12T23:04:26;-16708.94;;;-141.76;100.00
20210;BME280;10264;53.178;5.840;2023-09-12T23:07:09;-16708.94;;;-141.76;100.00
20210;BME280;10264;53.178;5.840;2023-09-12T23:09:59;-16708.94;;;-141.76;100.00
20210;BME280;10264;53.178;5.840;2023-09-12T23:12:50;-16708.94;;;-141.76;100.00
20210;BME280;10264;53.178;5.840;2023-09-12T23:16:17;-16708.94;;;-141.76;100.00
20210;BME280;10264;53.178;5.840;2023-09-12T23:19:23;-16708.94;;;-141.76;100.00
20210;BME280;10264;53.178;5.840;2023-09-12T23:23:18;-16708.94;;;-141.76;100.00
20210;BME280;10264;53.178;5.840;2023-09-12T23:29:28;-16708.94;;;-141.76;100.00
20210;BME280;10264;53.178;5.840;2023-09-12T23:32:32;-16708.94;;;-141.76;100.00
20210;BME280;10264;53.178;5.840;2023-09-12T23:42:11;-16708.94;;;-141.76;100.00
20210;BME280;10264;53.178;5.840;2023-09-12T23:48:29;-16708.94;;;-141.76;100.00
20210;BME280;10264;53.178;5.840;2023-09-12T23:51:38;-16708.94;;;-141.76;100.00
20210;BME280;10264;53.178;5.840;2023-09-12T23:54:16;-16708.94;;;-141.76;100.00
20210;BME280;10264;53.178;5.840;2023-09-12T23:57:00;-16708.94;;;-141.76;100.00
20210;BME280;10264;53.178;5.840;2023-09-12T23:59:44;-16708.94;;;-141.76;100.00
